createdAt,value
2019-05-14T00:01:03.757Z,11.52
2019-05-14T00:03:33.730Z,11.60
2019-05-14T00:06:02.368Z,11.64
2019-05-14T00:08:31.472Z,11.56
2019-05-14T00:11:01.399Z,11.61
2019-05-14T00:13:32.130Z,11.55
2019-05-14T00:16:01.439Z,11.52
2019-05-14T00:18:31.522Z,11.42
2019-05-14T00:21:02.032Z,11.42
2019-05-14T00:23:31.970Z,11.39
2019-05-14T00:26:01.759Z,11.33
2019-05-14T00:28:31.788Z,11.14
2019-05-14T00:31:02.638Z,11.12
2019-05-14T00:33:31.511Z,11.28
2019-05-14T00:36:02.096Z,11.21
2019-05-14T00:38:31.541Z,11.11
2019-05-14T00:41:01.912Z,11.06
2019-05-14T00:43:32.243Z,11.01
2019-05-14T00:46:01.633Z,11.04
2019-05-14T00:48:31.836Z,11.12
2019-05-14T00:51:02.158Z,11.04
2019-05-14T00:53:32.010Z,11.03
2019-05-14T00:56:02.145Z,11.05
2019-05-14T00:58:31.697Z,11.08
2019-05-14T01:01:01.592Z,11.27
2019-05-14T01:03:32.449Z,11.12
2019-05-14T01:06:02.639Z,11.26
2019-05-14T01:08:31.967Z,11.17
2019-05-14T01:11:01.608Z,10.87
2019-05-14T01:13:31.254Z,11.15
2019-05-14T01:16:01.605Z,11.24
2019-05-14T01:18:32.055Z,11.16
2019-05-14T01:21:01.099Z,11.18
2019-05-14T01:23:32.066Z,11.19
2019-05-14T01:26:02.071Z,11.17
2019-05-14T01:28:32.113Z,11.11
2019-05-14T01:31:01.135Z,11.13
2019-05-14T01:33:32.151Z,11.12
2019-05-14T01:36:02.175Z,11.08
2019-05-14T01:38:31.479Z,11.17
2019-05-14T01:41:02.003Z,11.13
2019-05-14T01:43:31.452Z,10.94
2019-05-14T01:46:03.558Z,10.90
2019-05-14T01:48:31.983Z,10.97
2019-05-14T01:51:01.626Z,10.93
2019-05-14T01:53:31.177Z,10.81
2019-05-14T01:56:01.713Z,10.83
2019-05-14T01:58:31.137Z,10.89
2019-05-14T02:01:02.087Z,10.81
2019-05-14T02:03:32.035Z,10.82
2019-05-14T02:06:01.519Z,10.69
2019-05-14T02:08:32.218Z,10.71
2019-05-14T02:11:03.898Z,10.69
2019-05-14T02:13:32.453Z,10.66
2019-05-14T02:16:01.677Z,10.63
2019-05-14T02:18:31.164Z,10.60
2019-05-14T02:21:01.652Z,10.55
2019-05-14T02:23:32.089Z,10.51
2019-05-14T02:26:02.569Z,10.46
2019-05-14T02:28:31.448Z,10.40
2019-05-14T02:31:03.336Z,10.39
2019-05-14T02:33:31.517Z,10.33
2019-05-14T02:36:10.146Z,10.30
2019-05-14T02:38:38.720Z,10.31
2019-05-14T02:41:06.187Z,9.96
2019-05-14T02:43:34.610Z,10.13
2019-05-14T02:46:12.000Z,10.27
2019-05-14T02:48:33.695Z,10.24
2019-05-14T02:51:02.101Z,10.09
2019-05-14T02:53:30.761Z,9.52
2019-05-14T02:55:59.774Z,9.90
2019-05-14T02:58:30.009Z,10.09
2019-05-14T03:01:00.442Z,10.14
2019-05-14T03:03:29.942Z,10.15
2019-05-14T03:06:00.310Z,9.74
2019-05-14T03:08:30.641Z,10.10
2019-05-14T03:11:00.400Z,10.08
2019-05-14T03:13:29.925Z,10.16
2019-05-14T03:15:59.589Z,10.24
2019-05-14T03:18:29.520Z,10.05
2019-05-14T03:21:00.797Z,9.89
2019-05-14T03:23:30.125Z,9.76
2019-05-14T03:26:01.092Z,9.95
2019-05-14T03:28:30.556Z,9.93
2019-05-14T03:31:02.871Z,10.01
2019-05-14T03:33:33.478Z,10.02
2019-05-14T03:36:08.258Z,9.97
2019-05-14T03:38:30.378Z,9.90
2019-05-14T03:41:00.403Z,9.76
2019-05-14T03:43:29.759Z,9.96
2019-05-14T03:45:59.325Z,9.88
2019-05-14T03:48:29.713Z,9.68
2019-05-14T03:51:00.102Z,9.83
2019-05-14T03:53:29.713Z,9.77
2019-05-14T03:55:59.865Z,9.85
2019-05-14T03:58:30.221Z,9.78
2019-05-14T04:01:03.424Z,9.51
2019-05-14T04:03:32.609Z,9.67
2019-05-14T04:06:02.922Z,9.54
2019-05-14T04:08:33.093Z,9.58
2019-05-14T04:11:02.128Z,9.46
2019-05-14T04:13:32.518Z,9.53
2019-05-14T04:16:03.041Z,9.15
2019-05-14T04:18:34.502Z,9.54
2019-05-14T04:21:04.798Z,9.64
2019-05-14T04:23:39.287Z,9.77
2019-05-14T04:26:09.401Z,9.86
2019-05-14T04:28:39.291Z,9.40
2019-05-14T04:31:09.785Z,9.63
2019-05-14T04:33:39.463Z,9.93
2019-05-14T04:36:09.926Z,9.91
2019-05-14T04:38:40.871Z,9.51
2019-05-14T04:41:10.363Z,9.71
2019-05-14T04:43:40.153Z,9.78
2019-05-14T04:46:10.328Z,9.78
2019-05-14T04:48:43.212Z,9.80
2019-05-14T04:51:09.891Z,9.69
2019-05-14T04:53:39.582Z,9.84
2019-05-14T04:56:09.910Z,9.94
2019-05-14T04:58:40.936Z,9.52
2019-05-14T05:01:09.933Z,9.53
2019-05-14T05:03:39.958Z,9.88
2019-05-14T05:06:09.910Z,9.94
2019-05-14T05:08:39.682Z,10.03
2019-05-14T05:11:09.318Z,10.13
2019-05-14T05:13:39.739Z,10.17
2019-05-14T05:16:09.869Z,10.06
2019-05-14T05:18:39.989Z,10.12
2019-05-14T05:21:08.897Z,10.20
2019-05-14T05:23:38.766Z,10.09
2019-05-14T05:26:09.157Z,10.11
2019-05-14T05:28:39.136Z,9.68
2019-05-14T05:31:09.257Z,10.27
2019-05-14T05:33:38.459Z,10.36
2019-05-14T05:36:09.428Z,10.40
2019-05-14T05:38:39.389Z,10.38
2019-05-14T05:41:08.829Z,10.21
2019-05-14T05:43:39.328Z,10.42
2019-05-14T05:46:08.632Z,10.50
2019-05-14T05:48:38.825Z,10.55
2019-05-14T05:51:09.078Z,10.48
2019-05-14T05:53:39.365Z,10.59
2019-05-14T05:56:08.967Z,10.62
2019-05-14T05:58:39.754Z,10.70
2019-05-14T06:01:09.608Z,10.69
2019-05-14T06:03:39.322Z,10.81
2019-05-14T06:06:13.535Z,10.90
2019-05-14T06:08:38.869Z,10.80
2019-05-14T06:11:08.420Z,10.85
2019-05-14T06:13:39.183Z,10.57
2019-05-14T06:16:09.510Z,10.63
2019-05-14T06:18:39.363Z,10.69
2019-05-14T06:21:09.128Z,10.99
2019-05-14T06:23:38.653Z,11.01
2019-05-14T06:26:11.545Z,10.72
2019-05-14T06:28:40.926Z,10.98
2019-05-14T06:31:10.008Z,11.17
2019-05-14T06:33:39.435Z,11.28
2019-05-14T06:36:08.838Z,11.33
2019-05-14T06:38:38.838Z,11.27
2019-05-14T06:41:08.423Z,11.28
2019-05-14T06:43:39.257Z,11.49
2019-05-14T06:46:09.031Z,11.50
2019-05-14T06:48:39.708Z,11.56
2019-05-14T06:51:08.806Z,11.67
2019-05-14T06:53:39.260Z,11.61
2019-05-14T06:56:08.256Z,11.68
2019-05-14T06:58:38.852Z,11.61
2019-05-14T07:01:09.426Z,11.74
2019-05-14T07:03:38.241Z,11.72
2019-05-14T07:06:08.998Z,11.78
2019-05-14T07:08:39.324Z,11.89
2019-05-14T07:11:08.489Z,11.89
2019-05-14T07:13:38.464Z,11.97
2019-05-14T07:16:08.925Z,11.95
2019-05-14T07:18:46.531Z,11.91
2019-05-14T07:21:08.333Z,12.06
2019-05-14T07:23:39.403Z,12.18
2019-05-14T07:26:09.727Z,12.10
2019-05-14T07:28:42.190Z,11.80
2019-05-14T07:31:09.779Z,12.05
2019-05-14T07:33:39.029Z,12.10
2019-05-14T07:36:09.101Z,12.18
2019-05-14T07:38:39.176Z,12.11
2019-05-14T07:41:09.189Z,12.29
2019-05-14T07:43:39.344Z,12.24
2019-05-14T07:46:08.535Z,12.54
2019-05-14T07:48:39.297Z,12.71
2019-05-14T07:51:08.895Z,12.84
2019-05-14T07:53:41.610Z,12.93
2019-05-14T07:56:09.453Z,12.88
2019-05-14T07:58:38.696Z,13.09
2019-05-14T08:01:09.424Z,13.12
2019-05-14T08:03:38.223Z,13.16
2019-05-14T08:06:08.355Z,13.23
2019-05-14T08:08:38.561Z,13.31
2019-05-14T08:11:08.712Z,13.30
2019-05-14T08:13:39.147Z,13.43
2019-05-14T08:16:09.007Z,13.61
2019-05-14T08:18:39.659Z,13.68
2019-05-14T08:21:08.440Z,13.61
2019-05-14T08:23:39.283Z,13.83
2019-05-14T08:26:08.001Z,14.09
2019-05-14T08:28:38.307Z,14.28
2019-05-14T08:31:09.107Z,13.70
2019-05-14T08:33:39.478Z,13.78
2019-05-14T08:36:08.894Z,14.36
2019-05-14T08:38:38.252Z,14.42
2019-05-14T08:41:08.459Z,14.41
2019-05-14T08:43:39.568Z,14.77
2019-05-14T08:46:08.252Z,14.95
2019-05-14T08:48:38.916Z,15.16
2019-05-14T08:51:09.163Z,14.74
2019-05-14T08:53:38.432Z,14.79
2019-05-14T08:56:08.352Z,14.96
2019-05-14T08:58:38.509Z,15.28
2019-05-14T09:01:08.192Z,15.45
2019-05-14T09:03:39.333Z,15.73
2019-05-14T09:06:09.195Z,15.62
2019-05-14T09:08:39.056Z,15.95
2019-05-14T09:11:09.855Z,16.09
2019-05-14T09:13:38.344Z,15.94
2019-05-14T09:16:09.215Z,16.32
2019-05-14T09:18:38.600Z,16.17
2019-05-14T09:21:08.688Z,16.35
2019-05-14T09:23:39.220Z,16.33
2019-05-14T09:26:09.526Z,15.99
2019-05-14T09:28:39.235Z,16.57
2019-05-14T09:31:08.570Z,16.86
2019-05-14T09:33:38.977Z,17.13
2019-05-14T09:36:17.924Z,17.15
2019-05-14T09:38:42.220Z,16.90
2019-05-14T09:41:14.741Z,17.66
2019-05-14T09:43:39.185Z,17.84
2019-05-14T09:46:09.027Z,18.11
2019-05-14T09:48:38.115Z,18.05
2019-05-14T09:51:09.090Z,18.20
2019-05-14T09:53:38.366Z,17.68
2019-05-14T09:56:09.112Z,17.48
2019-05-14T09:58:38.705Z,17.60
2019-05-14T10:01:08.514Z,17.80
2019-05-14T10:03:39.183Z,18.40
2019-05-14T10:06:09.693Z,18.75
2019-05-14T10:08:39.057Z,18.38
2019-05-14T10:11:07.720Z,19.12
2019-05-14T10:13:39.015Z,19.01
2019-05-14T10:16:06.433Z,18.28
2019-05-14T10:18:34.836Z,18.11
2019-05-14T10:21:03.269Z,18.41
2019-05-14T10:23:31.690Z,16.86
2019-05-14T10:26:00.144Z,17.14
2019-05-14T10:28:28.963Z,16.86
2019-05-14T10:30:59.918Z,17.40
2019-05-14T10:33:28.748Z,16.75
2019-05-14T10:35:58.886Z,16.64
2019-05-14T10:38:29.597Z,16.10
2019-05-14T10:40:58.426Z,16.84
2019-05-14T10:43:28.857Z,16.47
2019-05-14T10:45:58.040Z,16.10
2019-05-14T10:48:28.927Z,17.25
2019-05-14T10:51:02.944Z,19.44
2019-05-14T10:53:28.982Z,18.35
2019-05-14T10:55:58.274Z,18.22
2019-05-14T10:58:29.097Z,17.81
2019-05-14T11:00:58.987Z,16.47
2019-05-14T11:03:30.096Z,15.68
2019-05-14T11:05:58.777Z,18.51
2019-05-14T11:08:29.574Z,20.24
2019-05-14T11:11:03.619Z,20.36
2019-05-14T11:13:29.213Z,20.76
2019-05-14T11:15:59.673Z,21.61
2019-05-14T11:18:30.528Z,22.42
2019-05-14T11:21:18.215Z,22.00
2019-05-14T11:23:30.145Z,21.09
2019-05-14T11:25:58.700Z,21.87
2019-05-14T11:28:28.524Z,21.53
2019-05-14T11:30:57.338Z,21.30
2019-05-14T11:33:25.877Z,22.75
2019-05-14T11:35:54.535Z,22.55
2019-05-14T11:38:33.848Z,22.51
2019-05-14T11:40:53.210Z,24.34
2019-05-14T11:43:21.618Z,23.80
2019-05-14T11:45:50.114Z,23.17
2019-05-14T11:48:19.333Z,22.12
2019-05-14T11:50:49.102Z,20.79
2019-05-14T11:53:19.889Z,20.67
2019-05-14T11:55:50.282Z,20.27
2019-05-14T11:58:20.587Z,19.59
2019-05-14T12:00:48.616Z,20.10
2019-05-14T12:03:19.318Z,20.53
2019-05-14T12:05:49.521Z,20.11
2019-05-14T12:08:18.542Z,18.02
2019-05-14T12:10:47.402Z,17.96
2019-05-14T12:13:15.820Z,18.02
2019-05-14T12:15:44.331Z,17.87
2019-05-14T12:18:12.781Z,18.15
2019-05-14T12:20:41.279Z,17.41
2019-05-14T12:23:09.714Z,17.59
2019-05-14T12:25:38.112Z,17.63
2019-05-14T12:28:13.213Z,16.91
2019-05-14T12:30:39.293Z,17.03
2019-05-14T12:33:06.948Z,17.71
2019-05-14T12:35:35.380Z,17.55
2019-05-14T12:38:03.792Z,17.48
2019-05-14T12:40:32.223Z,16.69
2019-05-14T12:43:00.627Z,16.59
2019-05-14T12:45:30.142Z,16.87
2019-05-14T12:47:58.668Z,16.61
2019-05-14T12:50:27.171Z,16.68
2019-05-14T12:52:55.651Z,17.06
2019-05-14T12:55:24.171Z,18.11
2019-05-14T12:57:52.676Z,18.45
2019-05-14T13:00:21.403Z,17.98
2019-05-14T13:02:49.841Z,18.15
2019-05-14T13:05:18.625Z,17.99
2019-05-14T13:07:50.857Z,17.87
2019-05-14T13:10:18.897Z,18.66
2019-05-14T13:12:48.321Z,18.70
2019-05-14T13:15:20.031Z,18.93
2019-05-14T13:17:48.510Z,18.36
2019-05-14T13:20:18.522Z,18.67
2019-05-14T13:22:50.064Z,17.95
2019-05-14T13:25:18.905Z,18.34
2019-05-14T13:27:47.422Z,17.95
2019-05-14T13:30:18.569Z,18.11
2019-05-14T13:32:48.797Z,18.15
2019-05-14T13:35:19.654Z,17.29
2019-05-14T13:37:49.003Z,18.10
2019-05-14T13:40:20.846Z,17.98
2019-05-14T13:42:49.158Z,18.06
2019-05-14T13:45:19.276Z,17.74
2019-05-14T13:47:48.886Z,17.26
2019-05-14T13:50:19.669Z,17.31
2019-05-14T13:52:59.763Z,16.45
2019-05-14T13:55:19.431Z,16.31
2019-05-14T13:57:48.785Z,16.49
2019-05-14T14:00:19.960Z,16.38
2019-05-14T14:02:47.920Z,16.41
2019-05-14T14:05:19.876Z,16.66
2019-05-14T14:07:48.575Z,16.75
2019-05-14T14:10:17.319Z,16.61
2019-05-14T14:12:45.698Z,16.54
2019-05-14T14:15:14.370Z,16.18
2019-05-14T14:17:42.795Z,16.48
2019-05-14T14:20:11.633Z,16.44
2019-05-14T14:22:40.539Z,16.38
2019-05-14T14:25:09.412Z,16.79
2019-05-14T14:27:40.667Z,16.80
2019-05-14T14:30:09.823Z,16.54
2019-05-14T14:32:40.526Z,16.40
2019-05-14T14:35:09.073Z,16.65
2019-05-14T14:37:39.657Z,16.67
2019-05-14T14:40:10.256Z,16.29
2019-05-14T14:42:40.948Z,16.26
2019-05-14T14:45:10.897Z,16.22
2019-05-14T14:47:40.016Z,16.43
2019-05-14T14:50:09.523Z,16.32
2019-05-14T14:52:37.945Z,15.81
2019-05-14T14:55:10.447Z,15.91
2019-05-14T14:57:44.836Z,16.24
2019-05-14T15:00:11.413Z,16.50
2019-05-14T15:02:41.288Z,16.67
2019-05-14T15:05:14.329Z,16.73
2019-05-14T15:07:41.369Z,16.76
2019-05-14T15:10:10.295Z,16.81
2019-05-14T15:12:40.051Z,16.66
2019-05-14T15:15:09.150Z,16.60
2019-05-14T15:17:39.359Z,15.91
2019-05-14T15:20:10.316Z,15.65
2019-05-14T15:22:38.331Z,15.78
2019-05-14T15:25:09.070Z,15.57
2019-05-14T15:27:38.516Z,15.72
2019-05-14T15:30:10.738Z,16.12
2019-05-14T15:32:39.258Z,15.94
2019-05-14T15:35:10.634Z,15.90
2019-05-14T15:37:42.833Z,16.11
2019-05-14T15:40:11.804Z,15.87
2019-05-14T15:42:40.245Z,15.99
2019-05-14T15:45:09.357Z,15.82
2019-05-14T15:47:38.975Z,15.80
2019-05-14T15:50:10.355Z,16.03
2019-05-14T15:52:39.755Z,15.85
2019-05-14T15:55:09.526Z,15.78
2019-05-14T15:57:39.823Z,16.05
2019-05-14T16:00:12.787Z,15.98
2019-05-14T16:02:42.545Z,16.06
2019-05-14T16:05:11.015Z,15.53
2019-05-14T16:07:39.712Z,15.39
2019-05-14T16:10:08.880Z,15.41
2019-05-14T16:12:39.774Z,15.78
2019-05-14T16:15:09.737Z,15.91
2019-05-14T16:17:48.311Z,15.74
2019-05-14T16:20:09.233Z,16.13
2019-05-14T16:22:39.971Z,16.16
2019-05-14T16:25:09.762Z,16.10
2019-05-14T16:27:39.513Z,16.06
2019-05-14T16:30:10.053Z,15.85
2019-05-14T16:32:39.603Z,15.67
2019-05-14T16:35:09.082Z,15.60
2019-05-14T16:37:39.160Z,15.21
2019-05-14T16:40:08.554Z,15.25
2019-05-14T16:42:39.686Z,15.25
2019-05-14T16:45:08.827Z,15.18
2019-05-14T16:47:39.863Z,15.07
2019-05-14T16:50:09.235Z,15.21
2019-05-14T16:52:41.660Z,15.07
2019-05-14T16:55:23.031Z,15.26
2019-05-14T16:57:38.868Z,15.39
2019-05-14T17:00:09.738Z,15.50
2019-05-14T17:02:38.437Z,15.75
2019-05-14T17:05:09.228Z,15.56
2019-05-14T17:07:38.506Z,15.51
2019-05-14T17:10:08.401Z,15.37
2019-05-14T17:12:49.485Z,15.42
2019-05-14T17:15:09.595Z,15.43
2019-05-14T17:17:38.141Z,15.48
2019-05-14T17:20:08.511Z,15.72
2019-05-14T17:22:39.910Z,15.75
2019-05-14T17:25:09.446Z,15.46
2019-05-14T17:27:39.410Z,15.58
2019-05-14T17:30:08.974Z,15.25
2019-05-14T17:32:39.056Z,15.32
2019-05-14T17:35:08.436Z,14.97
2019-05-14T17:37:39.180Z,14.99
2019-05-14T17:40:09.406Z,14.66
2019-05-14T17:42:39.403Z,14.78
2019-05-14T17:45:08.716Z,15.15
2019-05-14T17:47:38.705Z,15.32
2019-05-14T17:50:08.149Z,15.33
2019-05-14T17:52:41.669Z,15.35
2019-05-14T17:55:11.570Z,15.36
2019-05-14T17:57:45.256Z,15.23
2019-05-14T18:00:09.638Z,15.13
2019-05-14T18:02:38.193Z,15.16
2019-05-14T18:05:09.359Z,15.22
2019-05-14T18:07:39.010Z,14.96
2019-05-14T18:10:09.108Z,15.03
2019-05-14T18:12:39.517Z,14.79
2019-05-14T18:15:11.381Z,14.73
2019-05-14T18:17:42.872Z,14.45
2019-05-14T18:20:18.726Z,14.72
2019-05-14T18:22:48.659Z,14.50
2019-05-14T18:25:21.491Z,14.59
2019-05-14T18:27:49.949Z,14.50
2019-05-14T18:30:18.651Z,14.61
2019-05-14T18:32:48.747Z,14.55
2019-05-14T18:35:18.889Z,14.34
2019-05-14T18:37:48.287Z,14.31
2019-05-14T18:40:18.334Z,14.24
2019-05-14T18:42:48.099Z,14.38
2019-05-14T18:45:18.903Z,14.29
2019-05-14T18:47:48.527Z,14.09
2019-05-14T18:50:19.608Z,13.88
2019-05-14T18:52:48.558Z,13.78
2019-05-14T18:55:18.653Z,13.93
2019-05-14T18:57:48.660Z,14.01
2019-05-14T19:00:18.560Z,14.16
2019-05-14T19:02:48.187Z,13.80
2019-05-14T19:05:18.376Z,13.85
2019-05-14T19:07:48.661Z,13.97
2019-05-14T19:10:18.558Z,14.07
2019-05-14T19:12:49.974Z,13.70
2019-05-14T19:15:18.505Z,13.95
2019-05-14T19:17:48.939Z,13.64
2019-05-14T19:20:19.348Z,13.29
2019-05-14T19:22:49.047Z,13.44
2019-05-14T19:25:18.643Z,13.70
2019-05-14T19:27:48.739Z,13.31
2019-05-14T19:30:19.341Z,13.24
2019-05-14T19:32:48.546Z,13.30
2019-05-14T19:35:19.255Z,13.22
2019-05-14T19:37:50.203Z,13.28
2019-05-14T19:40:19.100Z,13.27
2019-05-14T19:42:48.482Z,13.24
2019-05-14T19:45:17.212Z,13.60
2019-05-14T19:47:45.667Z,13.23
2019-05-14T19:50:14.524Z,13.19
2019-05-14T19:52:42.965Z,13.35
2019-05-14T19:55:11.806Z,13.17
2019-05-14T19:57:40.529Z,13.22
2019-05-14T20:00:10.104Z,13.14
2019-05-14T20:02:38.563Z,12.93
2019-05-14T20:05:09.062Z,12.85
2019-05-14T20:07:38.689Z,12.90
2019-05-14T20:10:08.946Z,12.67
2019-05-14T20:12:39.200Z,12.64
2019-05-14T20:15:09.355Z,12.95
2019-05-14T20:17:38.521Z,12.70
2019-05-14T20:20:09.223Z,13.00
2019-05-14T20:22:39.345Z,12.79
2019-05-14T20:25:08.577Z,12.82
2019-05-14T20:27:39.033Z,13.14
2019-05-14T20:30:10.968Z,12.65
2019-05-14T20:32:40.056Z,12.68
2019-05-14T20:35:09.515Z,12.80
2019-05-14T20:37:38.735Z,13.04
2019-05-14T20:40:08.313Z,12.90
2019-05-14T20:42:39.090Z,12.69
2019-05-14T20:45:07.663Z,12.54
2019-05-14T20:47:36.075Z,12.48
2019-05-14T20:50:08.902Z,12.00
2019-05-14T20:52:37.305Z,12.02
2019-05-14T20:55:09.196Z,12.69
2019-05-14T20:57:40.285Z,12.36
2019-05-14T21:00:11.629Z,12.39
2019-05-14T21:02:39.946Z,12.55
2019-05-14T21:05:13.417Z,12.62
2019-05-14T21:07:39.558Z,12.67
2019-05-14T21:10:09.251Z,12.37
2019-05-14T21:12:39.323Z,12.32
2019-05-14T21:15:09.031Z,12.08
2019-05-14T21:17:38.104Z,12.14
2019-05-14T21:20:09.094Z,12.35
2019-05-14T21:22:39.677Z,12.15
2019-05-14T21:25:11.391Z,12.21
2019-05-14T21:27:47.533Z,12.24
2019-05-14T21:30:09.281Z,12.50
2019-05-14T21:32:39.199Z,12.30
2019-05-14T21:35:08.210Z,12.31
2019-05-14T21:37:39.031Z,12.18
2019-05-14T21:40:09.176Z,12.07
2019-05-14T21:42:38.613Z,12.34
2019-05-14T21:45:09.670Z,12.34
2019-05-14T21:47:38.715Z,12.00
2019-05-14T21:50:09.082Z,12.37
2019-05-14T21:52:39.424Z,12.11
2019-05-14T21:55:08.237Z,12.22
2019-05-14T21:57:38.220Z,12.24
2019-05-14T22:00:19.115Z,12.00
2019-05-14T22:02:49.171Z,11.80
2019-05-14T22:05:18.957Z,12.21
2019-05-14T22:14:55.962Z,11.60
2019-05-14T22:17:24.372Z,11.43
2019-05-14T22:19:52.808Z,11.79
2019-05-14T22:22:21.210Z,11.59
2019-05-14T22:24:49.643Z,11.75
2019-05-14T22:27:18.496Z,11.73
2019-05-14T22:29:46.984Z,11.34
2019-05-14T22:32:15.432Z,11.27
2019-05-14T22:34:49.059Z,11.47
2019-05-14T22:37:19.890Z,11.45
2019-05-14T22:39:48.030Z,11.52
2019-05-14T22:42:18.727Z,11.63
2019-05-14T22:44:50.168Z,12.09
2019-05-14T22:47:18.826Z,12.06
2019-05-14T22:49:48.453Z,11.11
2019-05-14T22:52:18.901Z,11.19
2019-05-14T22:57:30.837Z,11.87
2019-05-14T22:59:58.081Z,11.92
2019-05-14T23:02:28.439Z,11.90
2019-05-14T23:04:58.526Z,11.89
2019-05-14T23:07:27.080Z,11.77
2019-05-14T23:09:55.491Z,11.66
2019-05-14T23:12:28.689Z,11.76
2019-05-14T23:14:58.162Z,11.84
2019-05-14T23:17:28.037Z,11.63
2019-05-14T23:19:58.076Z,11.68
2019-05-14T23:22:29.367Z,11.67
2019-05-14T23:24:59.049Z,11.81
2019-05-14T23:27:29.197Z,11.43
2019-05-14T23:29:58.709Z,11.63
2019-05-14T23:32:28.521Z,11.62
2019-05-14T23:34:58.421Z,11.51
2019-05-14T23:37:29.128Z,11.35
2019-05-14T23:39:59.454Z,11.31
2019-05-14T23:42:28.054Z,11.36
2019-05-14T23:44:58.557Z,11.52
2019-05-14T23:47:28.771Z,11.43
2019-05-14T23:49:58.434Z,11.47
2019-05-14T23:52:29.332Z,11.36
2019-05-14T23:54:57.301Z,11.33
2019-05-14T23:57:25.715Z,11.20
2019-05-14T23:59:54.154Z,11.12
